Time,TemperatureF,DewpointF,PressureIn,WindDirection,WindDirectionDegrees,WindSpeedMPH,WindSpeedGustMPH,Humidity,HourlyPrecipIn,Conditions,Clouds,dailyrainin,SoftwareType,DateUTC
2013-01-03 00:00:00,24.6,0.9,30.15,West,276,0.0,0.0,35,0.00,,---,0.00,VWS V14.01,2013-01-03 05:00:00,
2013-01-03 00:02:00,24.6,0.9,30.15,West,276,0.0,0.0,35,0.00,,---,0.00,VWS V14.01,2013-01-03 05:02:00,
2013-01-03 00:03:00,24.6,0.9,30.15,West,276,2.7,2.7,35,0.00,,---,0.00,VWS V14.01,2013-01-03 05:03:00,
2013-01-03 00:08:00,24.3,0.6,30.15,West,276,3.1,3.1,35,0.00,,---,0.00,VWS V14.01,2013-01-03 05:08:00,
2013-01-03 00:13:00,24.3,0.6,30.15,West,280,4.9,4.9,35,0.00,,---,0.00,VWS V14.01,2013-01-03 05:13:00,
2013-01-03 00:18:00,23.9,0.2,30.15,West,280,2.7,2.7,35,0.00,,---,0.00,VWS V14.01,2013-01-03 05:18:00,
2013-01-03 00:23:00,23.9,0.2,30.15,West,280,0.0,0.0,35,0.00,,---,0.00,VWS V14.01,2013-01-03 05:23:00,
2013-01-03 00:28:00,23.7,0.1,30.15,West,280,0.0,0.0,35,0.00,,---,0.00,VWS V14.01,2013-01-03 05:28:00,
2013-01-03 00:33:00,23.7,0.1,30.15,West,280,0.0,0.0,35,0.00,,---,0.00,VWS V14.01,2013-01-03 05:33:00,
2013-01-03 00:38:00,23.5,-0.1,30.15,West,280,2.2,2.2,35,0.00,,---,0.12,VWS V14.01,2013-01-03 05:38:00,
2013-01-03 00:43:00,23.5,-0.1,30.15,West,280,2.2,2.2,35,0.00,,---,0.00,VWS V14.01,2013-01-03 05:43:00,
2013-01-03 00:48:00,23.5,0.5,30.15,West,280,2.7,2.7,36,0.00,,---,0.00,VWS V14.01,2013-01-03 05:48:00,
2013-01-03 00:53:00,23.5,0.5,30.15,West,280,3.1,3.1,36,0.00,,---,0.00,VWS V14.01,2013-01-03 05:53:00,
2013-01-03 00:58:00,23.5,0.5,30.15,West,279,3.1,3.1,36,0.00,,---,0.00,VWS V14.01,2013-01-03 05:58:00,
2013-01-03 01:03:00,23.5,0.5,30.15,West,279,3.6,3.6,36,0.00,,---,0.00,VWS V14.01,2013-01-03 06:03:00,
2013-01-03 01:08:00,23.7,0.7,30.15,West,279,4.0,4.0,36,0.00,,---,0.00,VWS V14.01,2013-01-03 06:08:00,
2013-01-03 01:13:00,23.7,1.3,30.15,West,279,2.7,2.7,37,0.00,,---,0.00,VWS V14.01,2013-01-03 06:13:00,
2013-01-03 01:18:00,23.9,1.4,30.15,West,279,2.7,2.7,37,0.00,,---,0.00,VWS V14.01,2013-01-03 06:18:00,
2013-01-03 01:23:00,24.1,1.6,30.15,West,279,3.1,3.1,37,0.00,,---,0.00,VWS V14.01,2013-01-03 06:23:00,
2013-01-03 01:28:00,24.3,1.8,30.15,West,279,3.6,3.6,37,0.00,,---,0.00,VWS V14.01,2013-01-03 06:28:00,
2013-01-03 01:33:00,24.4,1.9,30.15,West,277,2.7,2.7,37,0.00,,---,0.00,VWS V14.01,2013-01-03 06:33:00,
2013-01-03 01:38:00,24.6,2.1,30.15,NW,305,2.2,2.2,37,0.00,,---,0.00,VWS V14.01,2013-01-03 06:38:00,
2013-01-03 01:43:00,24.6,1.5,30.15,NW,305,2.7,2.7,36,0.00,,---,0.00,VWS V14.01,2013-01-03 06:43:00,
2013-01-03 01:48:00,24.6,1.5,30.15,WNW,300,4.5,4.5,36,0.00,,---,0.00,VWS V14.01,2013-01-03 06:48:00,
2013-01-03 01:53:00,24.6,1.5,30.15,West,278,4.0,4.0,36,0.00,,---,0.00,VWS V14.01,2013-01-03 06:53:00,
2013-01-03 01:58:00,24.4,1.3,30.15,West,279,0.0,0.0,36,0.00,,---,0.00,VWS V14.01,2013-01-03 06:58:00,
2013-01-03 02:03:00,24.4,1.3,30.15,West,276,3.6,3.6,36,0.00,,---,0.00,VWS V14.01,2013-01-03 07:03:00,
2013-01-03 02:08:00,24.4,1.3,30.15,West,276,2.7,2.7,36,0.00,,---,0.00,VWS V14.01,2013-01-03 07:08:00,
2013-01-03 02:14:00,24.4,1.3,30.18,West,276,2.2,2.2,36,0.00,,---,0.00,VWS V14.01,2013-01-03 07:14:00,
2013-01-03 02:19:00,24.4,1.3,30.18,West,276,4.0,4.0,36,0.00,,---,0.00,VWS V14.01,2013-01-03 07:19:00,
2013-01-03 02:24:00,24.6,1.5,30.18,West,276,3.1,3.1,36,0.00,,---,0.00,VWS V14.01,2013-01-03 07:24:00,
2013-01-03 02:29:00,25.0,1.8,30.18,West,276,0.0,0.0,36,0.00,,---,0.00,VWS V14.01,2013-01-03 07:29:00,
2013-01-03 02:34:00,25.0,1.8,30.18,West,276,3.6,3.6,36,0.00,,---,0.00,VWS V14.01,2013-01-03 07:34:00,
2013-01-03 02:39:00,25.2,2.0,30.18,West,277,0.0,0.0,36,0.00,,---,0.00,VWS V14.01,2013-01-03 07:39:00,
2013-01-03 02:44:00,25.2,2.0,30.18,West,278,0.0,0.0,36,0.00,,---,0.00,VWS V14.01,2013-01-03 07:44:00,
2013-01-03 02:49:00,25.2,1.4,30.18,West,278,0.0,0.0,35,0.00,,---,0.00,VWS V14.01,2013-01-03 07:49:00,
2013-01-03 02:54:00,25.2,1.4,30.18,West,278,4.0,4.0,35,0.00,,---,0.00,VWS V14.01,2013-01-03 07:54:00,
2013-01-03 02:59:00,25.3,1.5,30.18,West,278,0.0,0.0,35,0.00,,---,0.00,VWS V14.01,2013-01-03 07:59:00,
2013-01-03 03:04:00,25.3,1.5,30.18,West,278,2.7,2.7,35,0.00,,---,0.00,VWS V14.01,2013-01-03 08:04:00,
2013-01-03 03:09:00,25.3,1.5,30.18,West,278,0.0,0.0,35,0.00,,---,0.00,VWS V14.01,2013-01-03 08:09:00,
2013-01-03 03:14:00,25.2,1.4,30.15,West,278,0.0,0.0,35,0.00,,---,0.00,VWS V14.01,2013-01-03 08:14:00,
2013-01-03 03:19:00,25.3,1.5,30.15,West,278,2.7,2.7,35,0.00,,---,0.00,VWS V14.01,2013-01-03 08:19:00,
2013-01-03 03:24:00,25.3,1.5,30.15,West,278,3.1,3.1,35,0.00,,---,0.00,VWS V14.01,2013-01-03 08:24:00,
2013-01-03 03:29:00,25.3,1.5,30.15,West,278,3.6,3.6,35,0.00,,---,0.00,VWS V14.01,2013-01-03 08:29:00,
2013-01-03 03:34:00,25.5,1.7,30.15,West,278,3.6,3.6,35,0.00,,---,0.00,VWS V14.01,2013-01-03 08:34:00,
2013-01-03 03:39:00,25.5,1.7,30.15,West,278,0.0,0.0,35,0.00,,---,0.00,VWS V14.01,2013-01-03 08:39:00,
2013-01-03 03:44:00,25.7,1.9,30.15,West,278,4.0,4.0,35,0.00,,---,0.00,VWS V14.01,2013-01-03 08:44:00,
2013-01-03 03:49:00,25.7,1.9,30.15,West,277,4.0,4.0,35,0.00,,---,0.00,VWS V14.01,2013-01-03 08:49:00,
2013-01-03 03:54:00,25.9,2.0,30.15,West,277,0.0,0.0,35,0.00,,---,0.00,VWS V14.01,2013-01-03 08:54:00,
2013-01-03 03:59:00,25.7,1.2,30.15,West,277,3.6,3.6,34,0.00,,---,0.00,VWS V14.01,2013-01-03 08:59:00,
2013-01-03 04:04:00,25.7,1.2,30.15,West,277,3.6,3.6,34,0.00,,---,0.00,VWS V14.01,2013-01-03 09:04:00,
2013-01-03 04:09:00,25.7,1.2,30.15,West,277,3.1,3.1,34,0.00,,---,0.00,VWS V14.01,2013-01-03 09:09:00,
2013-01-03 04:14:00,25.7,1.2,30.15,West,277,2.2,2.2,34,0.00,,---,0.00,VWS V14.01,2013-01-03 09:14:00,
2013-01-03 04:19:00,25.7,1.2,30.15,West,277,4.0,4.0,34,0.00,,---,0.00,VWS V14.01,2013-01-03 09:19:00,
2013-01-03 04:24:00,25.7,1.2,30.15,West,277,2.7,2.7,34,0.00,,---,0.00,VWS V14.01,2013-01-03 09:24:00,
2013-01-03 04:29:00,25.7,1.2,30.15,West,277,0.0,0.0,34,0.00,,---,0.00,VWS V14.01,2013-01-03 09:29:00,
2013-01-03 04:34:00,25.5,1.1,30.15,West,277,2.2,2.2,34,0.00,,---,0.00,VWS V14.01,2013-01-03 09:34:00,
2013-01-03 04:39:00,25.3,0.9,30.15,West,277,0.0,0.0,34,0.00,,---,0.00,VWS V14.01,2013-01-03 09:39:00,
2013-01-03 04:44:00,25.3,0.9,30.15,West,277,2.7,2.7,34,0.00,,---,0.00,VWS V14.01,2013-01-03 09:44:00,
2013-01-03 04:49:00,25.0,0.6,30.15,West,277,2.2,2.2,34,0.00,,---,0.00,VWS V14.01,2013-01-03 09:49:00,
2013-01-03 04:54:00,25.0,1.2,30.15,West,277,0.0,0.0,35,0.00,,---,0.00,VWS V14.01,2013-01-03 09:54:00,
2013-01-03 04:59:00,24.8,1.0,30.15,West,277,0.0,0.0,35,0.00,,---,0.00,VWS V14.01,2013-01-03 09:59:00,
2013-01-03 05:04:00,24.6,0.9,30.15,West,277,0.0,0.0,35,0.00,,---,0.00,VWS V14.01,2013-01-03 10:04:00,
2013-01-03 05:09:00,24.4,1.3,30.15,West,277,3.1,3.1,36,0.00,,---,0.00,VWS V14.01,2013-01-03 10:09:00,
2013-01-03 05:14:00,24.4,1.3,30.15,West,277,2.7,2.7,36,0.00,,---,0.00,VWS V14.01,2013-01-03 10:14:00,
2013-01-03 05:19:00,24.4,1.3,30.15,West,277,4.5,4.5,36,0.00,,---,0.00,VWS V14.01,2013-01-03 10:19:00,
2013-01-03 05:24:00,24.3,1.2,30.15,West,277,0.0,0.0,36,0.00,,---,0.00,VWS V14.01,2013-01-03 10:24:00,
2013-01-03 05:29:00,23.9,0.8,30.15,West,277,0.0,0.0,36,0.00,,---,0.00,VWS V14.01,2013-01-03 10:29:00,
2013-01-03 05:34:00,23.7,0.7,30.15,West,277,0.0,0.0,36,0.00,,---,0.00,VWS V14.01,2013-01-03 10:34:00,
2013-01-03 05:39:00,23.5,1.1,30.15,West,277,0.0,0.0,37,0.00,,---,0.00,VWS V14.01,2013-01-03 10:39:00,
2013-01-03 05:44:00,23.4,0.9,30.15,West,277,0.0,0.0,37,0.00,,---,0.00,VWS V14.01,2013-01-03 10:44:00,
2013-01-03 05:49:00,23.2,0.8,30.15,West,277,0.0,0.0,37,0.00,,---,0.00,VWS V14.01,2013-01-03 10:49:00,
2013-01-03 05:54:00,23.0,1.2,30.15,West,277,0.0,0.0,38,0.00,,---,0.00,VWS V14.01,2013-01-03 10:54:00,
2013-01-03 05:59:00,23.0,1.2,30.15,West,277,0.0,0.0,38,0.00,,---,0.00,VWS V14.01,2013-01-03 10:59:00,
2013-01-03 06:05:00,22.8,1.0,30.15,West,277,0.0,0.0,38,0.00,,---,0.00,VWS V14.01,2013-01-03 11:05:00,
2013-01-03 06:10:00,22.8,1.0,30.15,West,277,0.0,0.0,38,0.00,,---,0.00,VWS V14.01,2013-01-03 11:10:00,
2013-01-03 06:15:00,22.6,1.4,30.15,West,277,0.0,0.0,39,0.00,,---,0.00,VWS V14.01,2013-01-03 11:15:00,
2013-01-03 06:20:00,22.5,1.3,30.15,West,277,0.0,0.0,39,0.00,,---,0.00,VWS V14.01,2013-01-03 11:20:00,
2013-01-03 06:25:00,22.3,1.1,30.15,West,277,0.0,0.0,39,0.00,,---,0.00,VWS V14.01,2013-01-03 11:25:00,
2013-01-03 06:30:00,22.1,0.9,30.15,West,277,0.0,0.0,39,0.00,,---,0.00,VWS V14.01,2013-01-03 11:30:00,
2013-01-03 06:35:00,22.1,0.9,30.15,West,277,0.0,0.0,39,0.00,,---,0.00,VWS V14.01,2013-01-03 11:35:00,
2013-01-03 06:40:00,21.9,1.3,30.15,West,277,0.0,0.0,40,0.00,,---,0.00,VWS V14.01,2013-01-03 11:40:00,
2013-01-03 06:45:00,21.7,1.1,30.15,West,277,0.0,0.0,40,0.00,,---,0.00,VWS V14.01,2013-01-03 11:45:00,
2013-01-03 06:50:00,21.6,1.0,30.15,West,277,0.0,0.0,40,0.00,,---,0.00,VWS V14.01,2013-01-03 11:50:00,
2013-01-03 06:55:00,21.4,0.8,30.15,West,277,0.0,0.0,40,0.00,,---,0.00,VWS V14.01,2013-01-03 11:55:00,
2013-01-03 07:00:00,21.2,1.2,30.18,West,277,0.0,0.0,41,0.00,,---,0.00,VWS V14.01,2013-01-03 12:00:00,
2013-01-03 07:05:00,21.2,1.7,30.18,West,277,0.0,0.0,42,0.00,,---,0.00,VWS V14.01,2013-01-03 12:05:00,
2013-01-03 07:10:00,21.0,1.5,30.18,West,277,0.0,0.0,42,0.00,,---,0.00,VWS V14.01,2013-01-03 12:10:00,
2013-01-03 07:15:00,21.0,1.5,30.18,West,277,0.0,0.0,42,0.00,,---,0.00,VWS V14.01,2013-01-03 12:15:00,
2013-01-03 07:20:00,20.8,1.4,30.18,West,277,0.0,0.0,42,0.00,,---,0.00,VWS V14.01,2013-01-03 12:20:00,
2013-01-03 07:25:00,20.7,1.7,30.18,West,277,0.0,0.0,43,0.00,,---,0.00,VWS V14.01,2013-01-03 12:25:00,
2013-01-03 07:30:00,20.5,1.5,30.18,West,277,0.0,0.0,43,0.00,,---,0.00,VWS V14.01,2013-01-03 12:30:00,
2013-01-03 07:35:00,20.3,1.4,30.18,West,277,0.0,0.0,43,0.00,,---,0.00,VWS V14.01,2013-01-03 12:35:00,
2013-01-03 07:40:00,20.3,1.4,30.18,West,277,0.0,0.0,43,0.00,,---,0.00,VWS V14.01,2013-01-03 12:40:00,
2013-01-03 07:45:00,20.3,1.4,30.18,West,277,0.0,0.0,43,0.00,,---,0.00,VWS V14.01,2013-01-03 12:45:00,
2013-01-03 07:50:00,20.3,1.4,30.18,West,277,0.0,0.0,43,0.00,,---,0.00,VWS V14.01,2013-01-03 12:50:00,
2013-01-03 07:55:00,20.3,1.4,30.18,West,277,0.0,0.0,43,0.00,,---,0.00,VWS V14.01,2013-01-03 12:55:00,
2013-01-03 08:00:00,20.5,1.5,30.18,West,277,0.0,0.0,43,0.00,,---,0.00,VWS V14.01,2013-01-03 13:00:00,
2013-01-03 08:05:00,20.7,1.7,30.15,West,277,0.0,0.0,43,0.00,,---,0.00,VWS V14.01,2013-01-03 13:05:00,
2013-01-03 08:10:00,20.8,2.4,30.15,West,277,0.0,0.0,44,0.00,,---,0.00,VWS V14.01,2013-01-03 13:10:00,
2013-01-03 08:15:00,20.8,2.4,30.15,West,277,0.0,0.0,44,0.00,,---,0.00,VWS V14.01,2013-01-03 13:15:00,
2013-01-03 08:20:00,21.2,2.7,30.15,West,277,0.0,0.0,44,0.00,,---,0.00,VWS V14.01,2013-01-03 13:20:00,
2013-01-03 08:25:00,22.3,3.7,30.15,West,277,0.0,0.0,44,0.00,,---,0.00,VWS V14.01,2013-01-03 13:25:00,
2013-01-03 08:30:00,23.4,4.7,30.15,West,277,0.0,0.0,44,0.00,,---,0.00,VWS V14.01,2013-01-03 13:30:00,
2013-01-03 08:35:00,24.1,5.3,30.15,West,277,0.0,0.0,44,0.00,,---,0.00,VWS V14.01,2013-01-03 13:35:00,
2013-01-03 08:40:00,28.4,9.3,30.15,West,277,0.0,0.0,44,0.00,,---,0.00,VWS V14.01,2013-01-03 13:40:00,
2013-01-03 08:45:00,35.6,12.5,30.15,West,277,0.0,0.0,38,0.00,,---,0.00,VWS V14.01,2013-01-03 13:45:00,
2013-01-03 08:50:00,38.8,9.3,30.15,West,277,3.1,3.1,29,0.00,,---,0.00,VWS V14.01,2013-01-03 13:50:00,
2013-01-03 08:55:00,36.7,1.4,30.15,West,277,2.7,2.7,22,0.00,,---,0.00,VWS V14.01,2013-01-03 13:55:00,
2013-01-03 09:00:00,37.6,1.2,30.15,West,277,3.6,3.6,21,0.00,,---,0.00,VWS V14.01,2013-01-03 14:00:00,
2013-01-03 09:05:00,40.3,0.2,30.15,WNW,286,4.0,4.0,18,0.00,,---,0.00,VWS V14.01,2013-01-03 14:05:00,
2013-01-03 09:10:00,41.2,-1.6,30.15,WNW,290,3.6,3.6,16,0.00,,---,0.00,VWS V14.01,2013-01-03 14:10:00,
2013-01-03 09:15:00,41.2,-1.6,30.18,WSW,255,3.1,3.1,16,0.00,,---,0.00,VWS V14.01,2013-01-03 14:15:00,
2013-01-03 09:20:00,37.0,-3.7,30.18,WNW,286,4.0,4.0,17,0.00,,---,0.00,VWS V14.01,2013-01-03 14:20:00,
2013-01-03 09:25:00,33.1,-5.8,30.18,WNW,299,5.4,5.4,18,0.00,,---,0.00,VWS V14.01,2013-01-03 14:25:00,
2013-01-03 09:30:00,32.7,-6.1,30.18,NNW,345,2.7,2.7,18,0.00,,---,0.00,VWS V14.01,2013-01-03 14:30:00,
2013-01-03 09:35:00,32.2,-4.4,30.18,WNW,291,3.1,3.1,20,0.00,,---,0.00,VWS V14.01,2013-01-03 14:35:00,
2013-01-03 09:40:00,32.0,-4.5,30.18,NW,326,5.8,5.8,20,0.00,,---,0.00,VWS V14.01,2013-01-03 14:40:00,
2013-01-03 09:45:00,32.0,-1.6,30.18,North,350,3.6,3.6,23,0.00,,---,0.00,VWS V14.01,2013-01-03 14:45:00,
2013-01-03 09:50:00,32.0,-1.6,30.18,West,272,3.6,3.6,23,0.00,,---,0.00,VWS V14.01,2013-01-03 14:50:00,
2013-01-03 09:55:00,32.2,-1.4,30.18,NNW,333,2.7,2.7,23,0.00,,---,0.00,VWS V14.01,2013-01-03 14:55:00,
2013-01-03 10:00:00,32.4,-1.3,30.18,West,268,7.2,7.2,23,0.00,,---,0.00,VWS V14.01,2013-01-03 15:00:00,
2013-01-03 10:05:00,32.4,-1.3,30.18,West,271,4.0,4.0,23,0.00,,---,0.00,VWS V14.01,2013-01-03 15:05:00,
2013-01-03 10:10:00,32.4,-1.3,30.18,NW,320,2.2,2.2,23,0.00,,---,0.00,VWS V14.01,2013-01-03 15:10:00,
2013-01-03 10:15:00,32.5,-1.1,30.18,NW,315,5.8,5.8,23,0.00,,---,0.00,VWS V14.01,2013-01-03 15:15:00,
2013-01-03 10:21:00,32.7,-3.9,30.18,NW,305,2.7,2.7,20,0.00,,---,0.00,VWS V14.01,2013-01-03 15:21:00,
2013-01-03 10:26:00,33.1,-3.6,30.18,West,280,6.3,6.3,20,0.00,,---,0.00,VWS V14.01,2013-01-03 15:26:00,
2013-01-03 10:31:00,33.3,-3.5,30.18,NNW,335,4.0,4.0,20,0.00,,---,0.00,VWS V14.01,2013-01-03 15:31:00,
2013-01-03 10:35:00,33.4,-3.3,30.18,West,274,3.1,3.1,20,0.00,,---,0.00,VWS V14.01,2013-01-03 15:35:00,
2013-01-03 10:41:00,34.0,-2.9,30.15,NNW,346,2.7,2.7,20,0.00,,---,0.00,VWS V14.01,2013-01-03 15:41:00,
2013-01-03 10:46:00,34.3,-2.6,30.15,WNW,298,5.4,5.4,20,0.00,,---,0.00,VWS V14.01,2013-01-03 15:46:00,
2013-01-03 10:51:00,34.3,-2.6,30.15,NW,316,6.3,6.3,20,0.00,,---,0.00,VWS V14.01,2013-01-03 15:51:00,
2013-01-03 10:56:00,34.3,-2.6,30.15,West,265,4.0,4.0,20,0.00,,---,0.00,VWS V14.01,2013-01-03 15:56:00,
2013-01-03 11:01:00,34.2,-2.7,30.15,WNW,291,3.1,3.1,20,0.00,,---,0.00,VWS V14.01,2013-01-03 16:01:00,
2013-01-03 11:06:00,34.2,-2.7,30.15,West,278,6.3,6.3,20,0.00,,---,0.00,VWS V14.01,2013-01-03 16:06:00,
2013-01-03 11:11:00,34.2,-2.7,30.15,WSW,239,6.3,6.3,20,0.00,,---,0.00,VWS V14.01,2013-01-03 16:11:00,
2013-01-03 11:16:00,35.1,-2.0,30.15,NW,304,6.3,6.3,20,0.00,,---,0.00,VWS V14.01,2013-01-03 16:16:00,
2013-01-03 11:21:00,35.6,-2.6,30.15,WSW,249,3.6,3.6,19,0.00,,---,0.00,VWS V14.01,2013-01-03 16:21:00,
2013-01-03 11:26:00,35.8,-4.8,30.15,West,274,8.1,8.1,17,0.00,,---,0.00,VWS V14.01,2013-01-03 16:26:00,
2013-01-03 11:31:00,35.8,-4.8,30.12,WNW,295,10.1,10.1,17,0.00,,---,0.00,VWS V14.01,2013-01-03 16:31:00,
2013-01-03 11:36:00,35.6,-4.9,30.12,WNW,284,8.3,8.3,17,0.00,,---,0.00,VWS V14.01,2013-01-03 16:36:00,
2013-01-03 11:41:00,35.6,-4.9,30.12,West,270,11.0,11.0,17,0.00,,---,0.00,VWS V14.01,2013-01-03 16:41:00,
2013-01-03 11:46:00,35.4,-5.1,30.12,WSW,237,2.2,2.2,17,0.00,,---,0.00,VWS V14.01,2013-01-03 16:46:00,
2013-01-03 11:51:00,35.8,-4.8,30.12,SW,235,7.6,7.6,17,0.00,,---,0.00,VWS V14.01,2013-01-03 16:51:00,
2013-01-03 11:56:00,35.6,-4.9,30.12,West,275,7.6,7.6,17,0.00,,---,0.00,VWS V14.01,2013-01-03 16:56:00,
2013-01-03 12:01:00,35.6,-4.9,30.12,SSW,193,6.3,6.3,17,0.00,,---,0.00,VWS V14.01,2013-01-03 17:01:00,
2013-01-03 12:06:00,35.6,-4.9,30.12,SSW,193,4.0,4.0,17,0.00,,---,0.00,VWS V14.01,2013-01-03 17:06:00,
2013-01-03 12:11:00,35.8,-4.8,30.12,WSW,257,5.4,5.4,17,0.00,,---,0.00,VWS V14.01,2013-01-03 17:11:00,
2013-01-03 12:16:00,35.8,-4.8,30.12,SSW,208,4.9,4.9,17,0.00,,---,0.00,VWS V14.01,2013-01-03 17:16:00,
2013-01-03 12:21:00,35.6,-4.9,30.12,SSW,197,9.2,9.2,17,0.00,,---,0.00,VWS V14.01,2013-01-03 17:21:00,
2013-01-03 12:26:00,35.6,-4.9,30.09,WSW,245,10.1,10.1,17,0.00,,---,0.00,VWS V14.01,2013-01-03 17:26:00,
2013-01-03 12:31:00,35.4,-5.1,30.09,WSW,245,5.8,5.8,17,0.00,,---,0.00,VWS V14.01,2013-01-03 17:31:00,
2013-01-03 12:36:00,35.4,-5.1,30.09,SW,229,7.6,7.6,17,0.00,,---,0.00,VWS V14.01,2013-01-03 17:36:00,
2013-01-03 12:41:00,34.9,-5.5,30.09,WSW,258,5.8,5.8,17,0.00,,---,0.00,VWS V14.01,2013-01-03 17:41:00,
2013-01-03 12:46:00,34.5,-5.8,30.09,WSW,257,6.3,6.3,17,0.00,,---,0.00,VWS V14.01,2013-01-03 17:46:00,
2013-01-03 12:51:00,34.3,-5.9,30.09,SW,232,6.7,6.7,17,0.00,,---,0.00,VWS V14.01,2013-01-03 17:51:00,
2013-01-03 12:56:00,34.2,-6.1,30.09,SSW,208,3.6,3.6,17,0.00,,---,0.00,VWS V14.01,2013-01-03 17:56:00,
2013-01-03 13:01:00,33.8,-6.4,30.09,West,279,3.1,3.1,17,0.00,,---,0.00,VWS V14.01,2013-01-03 18:01:00,
2013-01-03 13:06:00,33.6,-5.3,30.09,SSW,194,5.8,5.8,18,0.00,,---,0.00,VWS V14.01,2013-01-03 18:06:00,
2013-01-03 13:11:00,33.6,-5.3,30.09,SW,218,6.3,6.3,18,0.00,,---,0.00,VWS V14.01,2013-01-03 18:11:00,
2013-01-03 13:16:00,33.6,-5.3,30.09,West,270,10.1,10.1,18,0.00,,---,0.00,VWS V14.01,2013-01-03 18:16:00,
2013-01-03 13:21:00,33.6,-5.3,30.09,West,280,8.3,8.3,18,0.00,,---,0.00,VWS V14.01,2013-01-03 18:21:00,
2013-01-03 13:26:00,33.6,-5.3,30.09,West,269,5.4,5.4,18,0.00,,---,0.00,VWS V14.01,2013-01-03 18:26:00,
2013-01-03 13:31:00,33.6,-5.3,30.09,SW,226,7.2,7.2,18,0.00,,---,0.00,VWS V14.01,2013-01-03 18:31:00,
2013-01-03 13:36:00,33.6,-5.3,30.09,West,259,11.0,11.0,18,0.00,,---,0.00,VWS V14.01,2013-01-03 18:36:00,
2013-01-03 13:41:00,33.8,-6.4,30.09,SW,218,8.3,8.3,17,0.00,,---,0.00,VWS V14.01,2013-01-03 18:41:00,
2013-01-03 13:46:00,34.0,-6.2,30.09,WSW,244,11.0,11.0,17,0.00,,---,0.00,VWS V14.01,2013-01-03 18:46:00,
2013-01-03 13:51:00,33.8,-6.4,30.09,SW,235,5.8,5.8,17,0.00,,---,0.00,VWS V14.01,2013-01-03 18:51:00,
2013-01-03 13:56:00,33.8,-6.4,30.06,SSW,208,8.3,8.3,17,0.00,,---,0.00,VWS V14.01,2013-01-03 18:56:00,
2013-01-03 14:01:00,33.8,-6.4,30.06,WSW,243,7.6,7.6,17,0.00,,---,0.00,VWS V14.01,2013-01-03 19:01:00,
2013-01-03 14:06:00,33.8,-6.4,30.06,West,280,5.4,5.4,17,0.00,,---,0.00,VWS V14.01,2013-01-03 19:06:00,
2013-01-03 14:11:00,33.8,-6.4,30.06,West,272,4.9,4.9,17,0.00,,---,0.00,VWS V14.01,2013-01-03 19:11:00,
2013-01-03 14:16:00,33.6,-5.3,30.06,NW,316,8.7,8.7,18,0.00,,---,0.00,VWS V14.01,2013-01-03 19:16:00,
2013-01-03 14:59:00,33.8,-6.4,30.06,West,267,4.9,4.9,17,0.00,,---,0.00,VWS V14.01,2013-01-03 19:59:00,
2013-01-03 15:04:00,33.8,-6.4,30.06,SW,236,5.8,5.8,17,0.00,,---,0.00,VWS V14.01,2013-01-03 20:04:00,
2013-01-03 15:09:00,33.8,-6.4,30.06,SW,233,5.8,5.8,17,0.00,,---,0.00,VWS V14.01,2013-01-03 20:09:00,
2013-01-03 15:14:00,33.8,-6.4,30.06,SW,226,5.4,5.4,17,0.00,,---,0.00,VWS V14.01,2013-01-03 20:14:00,
2013-01-03 15:19:00,33.8,-6.4,30.06,WSW,254,8.3,8.3,17,0.00,,---,0.00,VWS V14.01,2013-01-03 20:19:00,
2013-01-03 15:24:00,33.8,-6.4,30.06,West,263,8.1,8.1,17,0.00,,---,0.00,VWS V14.01,2013-01-03 20:24:00,
2013-01-03 15:29:00,33.8,-6.4,30.06,SW,218,7.6,7.6,17,0.00,,---,0.00,VWS V14.01,2013-01-03 20:29:00,
2013-01-03 15:34:00,33.6,-5.3,30.06,SW,233,5.8,5.8,18,0.00,,---,0.00,VWS V14.01,2013-01-03 20:34:00,
2013-01-03 15:39:00,33.6,-5.3,30.06,West,260,5.4,5.4,18,0.00,,---,0.00,VWS V14.01,2013-01-03 20:39:00,
2013-01-03 15:44:00,33.4,-5.5,30.06,WSW,258,10.1,10.1,18,0.00,,---,0.00,VWS V14.01,2013-01-03 20:44:00,
2013-01-03 15:49:00,33.4,-5.5,30.06,WSW,253,8.3,8.3,18,0.00,,---,0.00,VWS V14.01,2013-01-03 20:49:00,
2013-01-03 15:54:00,33.3,-5.7,30.06,West,275,3.1,3.1,18,0.00,,---,0.00,VWS V14.01,2013-01-03 20:54:00,
2013-01-03 15:59:00,33.3,-5.7,30.06,SSW,212,6.3,6.3,18,0.00,,---,0.00,VWS V14.01,2013-01-03 20:59:00,
2013-01-03 16:04:00,33.1,-5.8,30.06,SW,224,3.1,3.1,18,0.00,,---,0.00,VWS V14.01,2013-01-03 21:04:00,
2013-01-03 16:09:00,33.1,-5.8,30.06,WSW,245,7.2,7.2,18,0.00,,---,0.00,VWS V14.01,2013-01-03 21:09:00,
2013-01-03 16:14:00,32.7,-6.1,30.06,SW,216,3.1,3.1,18,0.00,,---,0.00,VWS V14.01,2013-01-03 21:14:00,
2013-01-03 16:19:00,32.7,-6.1,30.06,West,260,4.0,4.0,18,0.00,,---,0.00,VWS V14.01,2013-01-03 21:19:00,
2013-01-03 16:24:00,32.5,-6.2,30.06,SSW,198,3.1,3.1,18,0.00,,---,0.00,VWS V14.01,2013-01-03 21:24:00,
2013-01-03 16:29:00,32.4,-6.4,30.06,WNW,285,2.7,2.7,18,0.00,,---,0.00,VWS V14.01,2013-01-03 21:29:00,
2013-01-03 16:34:00,32.2,-6.6,30.06,West,262,7.6,7.6,18,0.00,,---,0.00,VWS V14.01,2013-01-03 21:34:00,
2013-01-03 16:39:00,32.2,-6.6,30.06,West,268,6.3,6.3,18,0.00,,---,0.00,VWS V14.01,2013-01-03 21:39:00,
2013-01-03 16:44:00,31.6,-7.0,30.06,West,280,4.0,4.0,18,0.00,,---,0.00,VWS V14.01,2013-01-03 21:44:00,
2013-01-03 16:49:00,31.5,-7.2,30.06,West,279,8.3,8.3,18,0.00,,---,0.00,VWS V14.01,2013-01-03 21:49:00,
2013-01-03 16:54:00,31.5,-7.2,30.06,WSW,254,8.3,8.3,18,0.00,,---,0.00,VWS V14.01,2013-01-03 21:54:00,
2013-01-03 16:59:00,31.1,-7.4,30.06,West,273,4.9,4.9,18,0.00,,---,0.00,VWS V14.01,2013-01-03 21:59:00,
2013-01-03 17:04:00,30.9,-7.6,30.06,West,279,4.0,4.0,18,0.00,,---,0.00,VWS V14.01,2013-01-03 22:04:00,
2013-01-03 17:09:00,30.7,-7.7,30.06,West,271,0.0,0.0,18,0.00,,---,0.00,VWS V14.01,2013-01-03 22:09:00,
2013-01-03 17:14:00,30.7,-7.7,30.09,WSW,247,4.0,4.0,18,0.00,,---,0.00,VWS V14.01,2013-01-03 22:14:00,
2013-01-03 17:19:00,30.6,-7.9,30.09,WSW,241,6.3,6.3,18,0.00,,---,0.00,VWS V14.01,2013-01-03 22:19:00,
2013-01-03 17:24:00,30.4,-8.0,30.09,WSW,246,3.6,3.6,18,0.00,,---,0.00,VWS V14.01,2013-01-03 22:24:00,
2013-01-03 17:29:00,30.2,-8.2,30.09,SW,220,3.1,3.1,18,0.00,,---,0.00,VWS V14.01,2013-01-03 22:29:00,
2013-01-03 17:34:00,30.0,-8.3,30.09,WSW,244,4.0,4.0,18,0.00,,---,0.00,VWS V14.01,2013-01-03 22:34:00,
2013-01-03 17:39:00,30.0,-8.3,30.09,SW,229,3.6,3.6,18,0.00,,---,0.00,VWS V14.01,2013-01-03 22:39:00,
2013-01-03 17:44:00,29.5,-8.8,30.09,SW,236,3.1,3.1,18,0.00,,---,0.00,VWS V14.01,2013-01-03 22:44:00,
2013-01-03 17:49:00,29.5,-8.8,30.09,West,267,3.1,3.1,18,0.00,,---,0.00,VWS V14.01,2013-01-03 22:49:00,
2013-01-03 17:54:00,29.5,-8.8,30.09,WNW,291,4.9,4.9,18,0.00,,---,0.00,VWS V14.01,2013-01-03 22:54:00,
2013-01-03 17:59:00,29.3,-8.9,30.09,WSW,252,2.7,2.7,18,0.00,,---,0.00,VWS V14.01,2013-01-03 22:59:00,
2013-01-03 18:04:00,29.3,-8.9,30.09,SW,221,5.4,5.4,18,0.00,,---,0.00,VWS V14.01,2013-01-03 23:04:00,
2013-01-03 18:09:00,29.1,-9.1,30.09,West,260,5.4,5.4,18,0.00,,---,0.00,VWS V14.01,2013-01-03 23:09:00,
2013-01-03 18:14:00,28.9,-9.2,30.09,SSW,212,4.0,4.0,18,0.00,,---,0.00,VWS V14.01,2013-01-03 23:14:00,
2013-01-03 18:19:00,28.8,-7.2,30.09,SW,225,3.6,3.6,20,0.00,,---,0.00,VWS V14.01,2013-01-03 23:19:00,
2013-01-03 18:24:00,28.6,-7.4,30.09,SW,226,3.6,3.6,20,0.00,,---,0.00,VWS V14.01,2013-01-03 23:24:00,
2013-01-03 18:29:00,28.4,-6.5,30.09,SW,227,3.1,3.1,21,0.00,,---,0.00,VWS V14.01,2013-01-03 23:29:00,
2013-01-03 18:34:00,28.2,-6.7,30.09,SW,234,3.6,3.6,21,0.00,,---,0.00,VWS V14.01,2013-01-03 23:34:00,
2013-01-03 18:39:00,28.2,-6.7,30.09,WSW,237,3.1,3.1,21,0.00,,---,0.00,VWS V14.01,2013-01-03 23:39:00,
2013-01-03 18:44:00,28.0,-6.8,30.09,SW,223,3.1,3.1,21,0.00,,---,0.00,VWS V14.01,2013-01-03 23:44:00,
2013-01-03 18:49:00,27.9,-7.0,30.09,SW,219,2.2,2.2,21,0.00,,---,0.00,VWS V14.01,2013-01-03 23:49:00,
2013-01-03 18:54:00,27.9,-7.0,30.09,SW,216,4.9,4.9,21,0.00,,---,0.00,VWS V14.01,2013-01-03 23:54:00,
2013-01-03 18:59:00,27.7,-7.2,30.09,SW,231,4.0,4.0,21,0.00,,---,0.00,VWS V14.01,2013-01-03 23:59:00,
2013-01-03 19:04:00,27.7,-7.2,30.09,SW,226,3.1,3.1,21,0.00,,---,0.00,VWS V14.01,2013-01-04 00:04:00,
2013-01-03 19:09:00,27.5,-5.4,30.09,SW,223,3.6,3.6,23,0.00,,---,0.00,VWS V14.01,2013-01-04 00:09:00,
2013-01-03 19:14:00,27.5,-5.4,30.09,SW,229,2.7,2.7,23,0.00,,---,0.00,VWS V14.01,2013-01-04 00:14:00,
2013-01-03 19:19:00,27.5,-5.4,30.09,SW,234,3.1,3.1,23,0.00,,---,0.00,VWS V14.01,2013-01-04 00:19:00,
2013-01-03 19:24:00,27.3,-5.6,30.09,SW,231,4.0,4.0,23,0.00,,---,0.00,VWS V14.01,2013-01-04 00:24:00,
2013-01-03 19:29:00,27.3,-5.6,30.09,SSW,209,4.0,4.0,23,0.00,,---,0.00,VWS V14.01,2013-01-04 00:29:00,
2013-01-03 19:34:00,27.3,-5.6,30.09,SW,230,3.1,3.1,23,0.00,,---,0.00,VWS V14.01,2013-01-04 00:34:00,
2013-01-03 19:39:00,27.0,-3.3,30.09,SSW,211,3.1,3.1,26,0.00,,---,0.00,VWS V14.01,2013-01-04 00:39:00,
2013-01-03 19:44:00,27.0,-3.3,30.09,WSW,246,4.9,4.9,26,0.00,,---,0.00,VWS V14.01,2013-01-04 00:44:00,
2013-01-03 20:48:00,26.6,0.7,30.09,SSW,211,2.2,2.2,32,0.00,,---,0.00,VWS V14.01,2013-01-04 01:48:00,
2013-01-03 20:53:00,26.4,0.6,30.09,SW,229,3.6,3.6,32,0.00,,---,0.00,VWS V14.01,2013-01-04 01:53:00,
2013-01-03 20:58:00,26.2,0.4,30.09,SW,230,3.6,3.6,32,0.00,,---,0.00,VWS V14.01,2013-01-04 01:58:00,
2013-01-03 21:03:00,26.2,0.4,30.09,SW,230,2.2,2.2,32,0.00,,---,0.00,VWS V14.01,2013-01-04 02:03:00,
2013-01-03 21:08:00,26.1,0.2,30.09,SW,233,2.2,2.2,32,0.00,,---,0.00,VWS V14.01,2013-01-04 02:08:00,
2013-01-03 21:13:00,25.9,0.1,30.09,SW,228,2.2,2.2,32,0.00,,---,0.00,VWS V14.01,2013-01-04 02:13:00,
2013-01-03 21:18:00,25.7,-0.1,30.09,SW,220,0.0,0.0,32,0.00,,---,0.00,VWS V14.01,2013-01-04 02:18:00,
2013-01-03 21:23:00,25.5,-0.2,30.09,SW,223,4.0,4.0,32,0.00,,---,0.00,VWS V14.01,2013-01-04 02:23:00,
2013-01-03 21:28:00,25.7,0.6,30.09,SW,229,5.4,5.4,33,0.00,,---,0.00,VWS V14.01,2013-01-04 02:28:00,
2013-01-03 21:33:00,25.9,1.4,30.09,SSW,212,3.6,3.6,34,0.00,,---,0.00,VWS V14.01,2013-01-04 02:33:00,
2013-01-03 21:38:00,26.1,1.5,30.09,South,187,2.2,2.2,34,0.00,,---,0.00,VWS V14.01,2013-01-04 02:38:00,
2013-01-03 21:43:00,26.1,1.5,30.09,SSW,213,0.0,0.0,34,0.00,,---,0.00,VWS V14.01,2013-01-04 02:43:00,
2013-01-03 21:48:00,25.9,1.4,30.09,WSW,256,8.1,8.1,34,0.00,,---,0.00,VWS V14.01,2013-01-04 02:48:00,
2013-01-03 21:53:00,26.1,2.2,30.09,SW,233,3.6,3.6,35,0.00,,---,0.00,VWS V14.01,2013-01-04 02:53:00,
2013-01-03 21:58:00,26.1,2.2,30.09,WSW,249,6.3,6.3,35,0.00,,---,0.00,VWS V14.01,2013-01-04 02:58:00,
2013-01-03 22:03:00,26.2,2.9,30.09,SSW,206,4.9,4.9,36,0.00,,---,0.00,VWS V14.01,2013-01-04 03:03:00,
2013-01-03 22:08:00,26.4,3.7,30.09,South,185,4.9,4.9,37,0.00,,---,0.00,VWS V14.01,2013-01-04 03:08:00,
2013-01-03 22:13:00,26.6,3.8,30.09,SW,236,5.4,5.4,37,0.00,,---,0.00,VWS V14.01,2013-01-04 03:13:00,
2013-01-03 22:18:00,26.8,4.0,30.09,SW,227,5.4,5.4,37,0.00,,---,0.00,VWS V14.01,2013-01-04 03:18:00,
2013-01-03 22:23:00,27.0,4.2,30.09,SW,236,3.1,3.1,37,0.00,,---,0.00,VWS V14.01,2013-01-04 03:23:00,
2013-01-03 22:28:00,27.0,4.2,30.09,WSW,253,6.3,6.3,37,0.00,,---,0.00,VWS V14.01,2013-01-04 03:28:00,
2013-01-03 22:33:00,27.0,4.2,30.09,SW,231,3.1,3.1,37,0.00,,---,0.00,VWS V14.01,2013-01-04 03:33:00,
2013-01-03 22:38:00,27.0,4.2,30.09,SW,220,7.6,7.6,37,0.00,,---,0.00,VWS V14.01,2013-01-04 03:38:00,
2013-01-03 22:43:00,27.1,4.3,30.09,SW,218,5.8,5.8,37,0.00,,---,0.00,VWS V14.01,2013-01-04 03:43:00,
2013-01-03 22:48:00,27.1,4.3,30.09,WSW,250,5.4,5.4,37,0.00,,---,0.00,VWS V14.01,2013-01-04 03:48:00,
2013-01-03 22:53:00,27.0,4.2,30.09,SSW,212,5.8,5.8,37,0.00,,---,0.00,VWS V14.01,2013-01-04 03:53:00,
2013-01-03 22:58:00,27.0,4.8,30.09,SW,225,3.6,3.6,38,0.00,,---,0.00,VWS V14.01,2013-01-04 03:58:00,
2013-01-03 23:03:00,27.0,4.8,30.09,WSW,240,4.0,4.0,38,0.00,,---,0.00,VWS V14.01,2013-01-04 04:03:00,
2013-01-03 23:08:00,27.0,5.3,30.09,SW,218,8.1,8.1,39,0.00,,---,0.00,VWS V14.01,2013-01-04 04:08:00,
2013-01-03 23:13:00,27.1,5.5,30.09,SW,223,4.9,4.9,39,0.00,,---,0.00,VWS V14.01,2013-01-04 04:13:00,
2013-01-03 23:18:00,27.0,5.3,30.09,SSW,212,7.6,7.6,39,0.00,,---,0.00,VWS V14.01,2013-01-04 04:18:00,
2013-01-03 23:23:00,27.0,5.3,30.09,WSW,248,4.9,4.9,39,0.00,,---,0.00,VWS V14.01,2013-01-04 04:23:00,
2013-01-03 23:28:00,27.0,5.3,30.09,SW,233,4.9,4.9,39,0.00,,---,0.00,VWS V14.01,2013-01-04 04:28:00,
2013-01-03 23:33:00,27.0,5.3,30.09,WSW,246,5.4,5.4,39,0.00,,---,0.00,VWS V14.01,2013-01-04 04:33:00,
2013-01-03 23:38:00,27.0,5.9,30.09,SW,225,5.8,5.8,40,0.00,,---,0.00,VWS V14.01,2013-01-04 04:38:00,
2013-01-03 23:43:00,27.0,6.4,30.09,SSW,202,3.1,3.1,41,0.00,,---,0.00,VWS V14.01,2013-01-04 04:43:00,
2013-01-03 23:48:00,27.0,6.4,30.09,WSW,241,5.8,5.8,41,0.00,,---,0.00,VWS V14.01,2013-01-04 04:48:00,
2013-01-03 23:53:00,27.0,6.4,30.09,WSW,237,6.3,6.3,41,0.00,,---,0.00,VWS V14.01,2013-01-04 04:53:00,
2013-01-03 23:58:00,27.1,6.6,30.09,SW,217,3.6,3.6,41,0.00,,---,0.00,VWS V14.01,2013-01-04 04:58:00,